Time;durP1;ratioP1;P1;durP2;ratioP2;P2;SDS_P1;SDS_P2;PMS_P1;PMS_P2;Temp;Humidity;BMP_temperature;BMP_pressure;BME280_temperature;BME280_humidity;BME280_pressure;Samples;Min_cycle;Max_cycle;Signal;HPM_P1;HPM_P2
2023/04/13 00:02:13;;;;;;;0.63;0.50;;;14.20;55.00;;;;;;6293980;28;20028;-67
2023/04/13 00:05:15;;;;;;;3.53;0.35;;;14.30;54.90;;;;;;6292146;28;20063;-67
2023/04/13 00:08:16;;;;;;;0.93;0.40;;;14.30;54.80;;;;;;6293369;28;20047;-68
2023/04/13 00:11:17;;;;;;;4.50;0.43;;;14.30;54.50;;;;;;6291847;28;20032;-68
2023/04/13 00:14:18;;;;;;;0.55;0.45;;;14.30;54.00;;;;;;6293120;28;20468;-68
2023/04/13 00:17:19;;;;;;;0.30;0.30;;;14.20;53.90;;;;;;6293262;28;20112;-67
2023/04/13 00:20:19;;;;;;;1.95;0.82;;;14.10;54.00;;;;;;6293325;28;20090;-67
2023/04/13 00:23:21;;;;;;;1.60;0.55;;;14.00;54.00;;;;;;6293130;28;20035;-67
2023/04/13 00:26:24;;;;;;;0.70;0.50;;;13.80;54.20;;;;;;6292989;28;20100;-68
2023/04/13 00:29:25;;;;;;;1.45;0.40;;;13.80;54.30;;;;;;6291582;28;20096;-68
2023/04/13 00:32:26;;;;;;;2.83;0.50;;;13.70;54.30;;;;;;6293138;28;20024;-66
2023/04/13 00:35:27;;;;;;;1.08;0.50;;;13.80;54.30;;;;;;6293172;28;20021;-68
2023/04/13 00:38:28;;;;;;;0.28;0.28;;;13.80;54.00;;;;;;6292572;28;20456;-69
2023/04/13 00:41:29;;;;;;;2.65;0.57;;;13.80;54.00;;;;;;6291091;28;20047;-67
2023/04/13 00:44:30;;;;;;;1.02;0.50;;;13.80;53.70;;;;;;6291100;28;20444;-67
2023/04/13 00:47:35;;;;;;;5.88;0.60;;;13.90;53.60;;;;;;6274469;28;20078;-66
2023/04/13 00:50:36;;;;;;;0.90;0.30;;;13.80;53.30;;;;;;6291035;28;20115;-68
2023/04/13 00:53:37;;;;;;;1.48;0.38;;;13.90;53.00;;;;;;6291591;28;20168;-67
2023/04/13 00:56:38;;;;;;;1.85;0.77;;;13.80;52.60;;;;;;6291189;28;20404;-67
2023/04/13 00:59:39;;;;;;;2.55;0.30;;;13.80;52.30;;;;;;6287908;28;20033;-67
2023/04/13 01:02:40;;;;;;;8.98;0.60;;;13.80;51.60;;;;;;6267571;28;20025;-67
2023/04/13 01:06:07;;;;;;;3.05;0.40;;;13.80;51.30;;;;;;6271034;28;20584;-66
2023/04/13 01:09:14;;;;;;;2.05;0.63;;;13.80;51.10;;;;;;6299625;28;20043;-67
2023/04/13 01:12:38;;;;;;;0.20;0.20;;;13.80;50.80;;;;;;6296268;28;20035;-68
2023/04/13 01:15:45;;;;;;;1.67;0.52;;;13.70;50.30;;;;;;6283397;28;20436;-68
2023/04/13 01:18:52;;;;;;;1.85;0.35;;;13.70;49.70;;;;;;6271489;28;20097;-67
2023/04/13 01:21:54;;;;;;;3.35;0.55;;;13.70;50.00;;;;;;6303862;28;20323;-67
2023/04/13 01:25:02;;;;;;;3.15;0.52;;;13.70;49.00;;;;;;6313697;28;20524;-67
2023/04/13 01:28:24;;;;;;;2.30;0.10;;;13.70;48.10;;;;;;6296615;28;20031;-67
2023/04/13 01:31:25;;;;;;;0.30;0.20;;;13.60;48.70;;;;;;6296212;28;20039;-68
2023/04/13 01:34:27;;;;;;;0.10;0.10;;;13.50;49.90;;;;;;6296211;28;20039;-67
2023/04/13 01:37:28;;;;;;;3.20;0.17;;;13.30;50.60;;;;;;6296676;28;20130;-66
2023/04/13 01:40:33;;;;;;;0.30;0.10;;;13.20;51.30;;;;;;6296301;28;20052;-68
2023/04/13 01:43:34;;;;;;;1.65;0.25;;;13.10;51.70;;;;;;6296410;28;20024;-67
2023/04/13 01:46:48;;;;;;;0.17;0.17;;;13.00;51.90;;;;;;6281234;28;20434;-65
2023/04/13 01:50:24;;;;;;;0.10;0.10;;;12.90;52.10;;;;;;6282627;28;20041;-67
2023/04/13 01:53:40;;;;;;;2.30;0.43;;;12.80;52.20;;;;;;6289987;28;20036;-66
2023/04/13 01:56:44;;;;;;;0.30;0.05;;;12.80;52.30;;;;;;6289383;28;20032;-66
2023/04/13 01:59:45;;;;;;;0.10;0.00;;;12.80;52.50;;;;;;6291097;28;20104;-68
2023/04/13 02:02:53;;;;;;;0.03;0.03;;;12.70;52.40;;;;;;6289629;28;20134;-68
2023/04/13 02:05:55;;;;;;;0.00;0.00;;;12.70;52.30;;;;;;6289624;28;20389;-67
2023/04/13 02:08:56;;;;;;;0.75;0.20;;;12.70;52.20;;;;;;6273010;28;20024;-67
2023/04/13 02:11:57;;;;;;;1.05;0.05;;;12.70;52.20;;;;;;6275817;28;20065;-68
2023/04/13 02:14:59;;;;;;;0.98;0.43;;;12.70;52.30;;;;;;6266196;28;20020;-68
2023/04/13 02:18:01;;;;;;;0.40;0.17;;;12.70;52.30;;;;;;6278543;28;20048;-67
2023/04/13 02:21:08;;;;;;;1.02;0.20;;;12.70;52.20;;;;;;6289165;28;20031;-68
2023/04/13 02:24:09;;;;;;;0.30;0.10;;;12.70;52.30;;;;;;6289707;28;20032;-68
2023/04/13 02:27:11;;;;;;;1.55;0.10;;;12.80;52.30;;;;;;6272723;28;20052;-67
2023/04/13 02:30:12;;;;;;;2.65;0.20;;;12.80;52.40;;;;;;6290806;28;20040;-67
2023/04/13 02:33:12;;;;;;;1.20;0.20;;;12.90;52.40;;;;;;6289133;28;20025;-67
2023/04/13 02:36:16;;;;;;;0.30;0.03;;;12.90;52.40;;;;;;6289232;28;20223;-68
2023/04/13 02:39:32;;;;;;;;;;;12.90;52.70;;;;;;6289225;28;20321;-67
2023/04/13 02:42:34;;;;;;;0.10;0.10;;;12.90;52.90;;;;;;6288965;28;19908;-66
2023/04/13 02:45:36;;;;;;;0.10;0.10;;;12.90;53.00;;;;;;6288910;28;20025;-68
2023/04/13 02:48:37;;;;;;;0.10;0.10;;;12.90;53.20;;;;;;6289128;28;20500;-66
2023/04/13 02:51:39;;;;;;;0.63;0.20;;;12.90;53.20;;;;;;6289106;28;20119;-68
2023/04/13 02:54:42;;;;;;;0.20;0.10;;;12.90;53.20;;;;;;6289267;28;20131;-66
2023/04/13 02:57:43;;;;;;;0.08;0.08;;;12.90;53.20;;;;;;6288892;28;20037;-69
2023/04/13 03:00:47;;;;;;;0.00;0.00;;;12.90;53.30;;;;;;6288725;28;20023;-66
2023/04/13 03:03:51;;;;;;;0.13;0.13;;;12.90;53.40;;;;;;6289140;28;20449;-68
2023/04/13 03:06:55;;;;;;;0.00;0.00;;;12.90;53.50;;;;;;6288777;28;20472;-67
2023/04/13 03:10:00;;;;;;;0.20;0.20;;;12.90;53.60;;;;;;6288776;28;20480;-67
2023/04/13 03:13:02;;;;;;;0.85;0.15;;;12.90;53.70;;;;;;6288694;28;20036;-68
2023/04/13 03:16:03;;;;;;;0.10;0.10;;;12.90;53.70;;;;;;6288807;28;20070;-68
2023/04/13 03:19:04;;;;;;;3.28;0.30;;;12.90;53.80;;;;;;6271514;28;20487;-66
2023/04/13 03:22:07;;;;;;;0.30;0.22;;;12.80;53.90;;;;;;6271962;28;20036;-66
2023/04/13 03:25:12;;;;;;;4.85;0.57;;;12.80;54.00;;;;;;6288705;28;20101;-66
2023/04/13 03:28:14;;;;;;;0.13;0.13;;;12.80;54.10;;;;;;6288240;28;20082;-66
2023/04/13 03:31:21;;;;;;;0.20;0.20;;;12.80;54.10;;;;;;6288308;28;20059;-67
2023/04/13 03:34:24;;;;;;;5.03;0.55;;;12.80;54.10;;;;;;6275011;28;20123;-67
2023/04/13 03:37:28;;;;;;;0.10;0.10;;;12.80;54.10;;;;;;6292537;28;20496;-68
2023/04/13 03:40:33;;;;;;;0.10;0.10;;;12.80;54.10;;;;;;6276636;28;20024;-67
2023/04/13 03:43:34;;;;;;;4.22;0.32;;;12.80;54.20;;;;;;6293067;28;20020;-67
2023/04/13 03:46:43;;;;;;;0.47;0.20;;;12.80;54.40;;;;;;6284528;28;20029;-68
2023/04/13 03:49:55;;;;;;;0.17;0.17;;;12.80;54.50;;;;;;6284734;28;20024;-68
2023/04/13 03:52:56;;;;;;;0.22;0.22;;;12.70;54.50;;;;;;6292566;28;20048;-68
2023/04/13 03:55:58;;;;;;;0.63;0.15;;;12.70;54.70;;;;;;6292383;28;20035;-67
2023/04/13 03:58:59;;;;;;;0.10;0.10;;;12.70;54.80;;;;;;6294027;28;20100;-68
2023/04/13 04:02:03;;;;;;;1.08;0.20;;;12.60;54.80;;;;;;6275880;28;20024;-66
2023/04/13 04:05:08;;;;;;;0.47;0.20;;;12.60;54.90;;;;;;6273119;28;20110;-67
2023/04/13 04:08:09;;;;;;;0.25;0.20;;;12.50;55.00;;;;;;6267241;28;20101;-66
2023/04/13 04:11:11;;;;;;;1.00;0.10;;;12.50;55.00;;;;;;6274780;28;20469;-69
2023/04/13 04:14:12;;;;;;;0.20;0.20;;;12.50;55.10;;;;;;6291843;28;20029;-67
2023/04/13 04:17:22;;;;;;;0.80;0.45;;;12.50;55.20;;;;;;6291663;28;20051;-68
2023/04/13 04:20:23;;;;;;;0.30;0.20;;;12.50;55.10;;;;;;6293491;28;20029;-66
2023/04/13 04:23:26;;;;;;;2.92;0.38;;;12.50;55.10;;;;;;6291866;28;20051;-69
2023/04/13 04:26:34;;;;;;;1.90;0.30;;;12.50;55.10;;;;;;6291863;28;20024;-66
2023/04/13 04:29:35;;;;;;;0.25;0.25;;;12.60;55.20;;;;;;6290918;28;20040;-67
2023/04/13 04:32:47;;;;;;;1.92;0.40;;;12.60;55.10;;;;;;6291692;28;20196;-69
2023/04/13 04:35:52;;;;;;;0.25;0.25;;;12.60;55.10;;;;;;6291451;28;20032;-66
2023/04/13 04:39:01;;;;;;;1.98;0.50;;;12.60;55.00;;;;;;6291363;28;20024;-67
2023/04/13 04:42:06;;;;;;;6.13;0.75;;;12.60;54.90;;;;;;6275264;28;20032;-67
2023/04/13 04:45:09;;;;;;;3.53;0.40;;;12.70;54.80;;;;;;6288918;28;20036;-66
2023/04/13 04:48:15;;;;;;;3.60;0.50;;;12.70;54.70;;;;;;6291134;28;20139;-67
2023/04/13 04:51:23;;;;;;;2.40;0.43;;;12.70;54.50;;;;;;6291295;28;20463;-68
2023/04/13 04:54:25;;;;;;;0.80;0.55;;;12.60;54.40;;;;;;6291254;28;20025;-67
2023/04/13 04:57:26;;;;;;;0.20;0.20;;;12.60;54.50;;;;;;6292431;28;20028;-67
2023/04/13 05:00:29;;;;;;;1.10;0.60;;;12.50;54.10;;;;;;6290609;28;20107;-67
2023/04/13 05:03:50;;;;;;;2.47;0.25;;;12.50;54.40;;;;;;6291053;28;20115;-67
2023/04/13 05:07:01;;;;;;;4.03;0.50;;;12.40;53.10;;;;;;6275786;28;20035;-68
2023/04/13 05:10:08;;;;;;;1.35;0.30;;;12.30;52.70;;;;;;6290858;28;20028;-67
2023/04/13 05:13:12;;;;;;;0.50;0.20;;;12.10;52.70;;;;;;6290573;28;20052;-67
2023/04/13 05:16:16;;;;;;;8.98;0.70;;;12.10;52.80;;;;;;6290437;28;20491;-67
2023/04/13 05:19:17;;;;;;;1.65;0.35;;;12.10;52.80;;;;;;6290482;28;20070;-66
2023/04/13 05:22:19;;;;;;;3.33;0.30;;;12.00;52.70;;;;;;6292396;28;20039;-66
2023/04/13 05:25:25;;;;;;;0.73;0.50;;;12.00;52.70;;;;;;6274727;28;20029;-67
2023/04/13 05:28:28;;;;;;;2.90;0.70;;;12.00;52.60;;;;;;6289906;28;20036;-67
2023/04/13 05:31:29;;;;;;;4.90;0.50;;;12.00;52.60;;;;;;6290868;28;20448;-67
2023/04/13 05:34:36;;;;;;;4.47;0.73;;;12.10;52.60;;;;;;6290734;28;20413;-67
2023/04/13 05:37:45;;;;;;;4.07;0.45;;;12.10;52.50;;;;;;6274468;28;20137;-67
2023/04/13 05:40:53;;;;;;;2.65;0.68;;;12.10;52.30;;;;;;6290108;28;20021;-68
2023/04/13 05:43:54;;;;;;;0.70;0.40;;;12.10;52.20;;;;;;6288162;28;20423;-68
2023/04/13 05:46:55;;;;;;;4.10;0.90;;;12.10;52.20;;;;;;6265257;28;20036;-68
2023/04/13 05:49:57;;;;;;;1.38;0.55;;;12.20;52.20;;;;;;6248289;28;20634;-66
2023/04/13 05:52:58;;;;;;;3.95;0.35;;;12.20;52.20;;;;;;6265140;28;20631;-67
2023/04/13 05:56:06;;;;;;;5.10;0.63;;;12.30;52.00;;;;;;6270118;28;20421;-67
2023/04/13 05:59:10;;;;;;;0.88;0.50;;;12.30;51.80;;;;;;6289442;28;20020;-67
2023/04/13 06:02:11;;;;;;;1.90;0.60;;;12.20;51.50;;;;;;6289619;28;20056;-68
2023/04/13 06:05:14;;;;;;;0.40;0.40;;;12.10;51.70;;;;;;6289991;28;20494;-68
2023/04/13 06:08:15;;;;;;;1.77;0.63;;;12.00;52.00;;;;;;6289752;28;20083;-67
2023/04/13 06:11:17;;;;;;;9.30;1.00;;;12.00;52.20;;;;;;6291151;28;20032;-67
2023/04/13 06:14:19;;;;;;;0.22;0.22;;;12.00;52.40;;;;;;6290657;28;20376;-67
2023/04/13 06:17:21;;;;;;;4.22;0.52;;;12.00;52.70;;;;;;6289857;28;20063;-67
2023/04/13 06:20:22;;;;;;;0.40;0.30;;;12.00;53.00;;;;;;6291293;28;20024;-67
2023/04/13 06:23:23;;;;;;;3.95;0.55;;;11.90;53.10;;;;;;6291252;28;20365;-68
2023/04/13 06:26:27;;;;;;;0.20;0.20;;;11.90;53.30;;;;;;6289578;28;20033;-66
2023/04/13 06:29:30;;;;;;;1.40;0.55;;;11.90;53.30;;;;;;6289358;28;20035;-68
2023/04/13 06:32:38;;;;;;;7.20;1.08;;;11.80;53.10;;;;;;6273955;28;20115;-67
2023/04/13 06:35:39;;;;;;;1.27;0.47;;;11.80;53.10;;;;;;6289675;28;20032;-67
2023/04/13 06:38:41;;;;;;;2.97;0.65;;;11.80;53.20;;;;;;6289104;28;20035;-68
2023/04/13 06:41:47;;;;;;;0.28;0.25;;;11.80;53.20;;;;;;6289584;28;20133;-66
2023/04/13 06:44:54;;;;;;;0.28;0.20;;;11.80;53.10;;;;;;6279736;28;20037;-68
2023/04/13 06:47:57;;;;;;;3.30;0.52;;;11.90;52.70;;;;;;6264232;28;20064;-67
2023/04/13 06:50:59;;;;;;;1.80;1.02;;;11.90;52.60;;;;;;6264893;28;20036;-67
2023/04/13 06:54:02;;;;;;;3.97;0.80;;;11.90;52.40;;;;;;6264396;28;20029;-68
2023/04/13 06:57:03;;;;;;;3.47;0.30;;;12.10;52.40;;;;;;6264769;28;20053;-68
2023/04/13 07:00:06;;;;;;;0.40;0.15;;;12.30;52.00;;;;;;6264793;28;20032;-67
2023/04/13 07:03:07;;;;;;;2.28;0.55;;;12.50;51.50;;;;;;6265033;28;20040;-68
2023/04/13 07:06:10;;;;;;;0.63;0.30;;;12.60;50.80;;;;;;6264516;28;20017;-66
2023/04/13 07:09:14;;;;;;;0.57;0.20;;;12.80;50.70;;;;;;6268438;28;20045;-68
2023/04/13 07:12:15;;;;;;;4.15;0.98;;;13.00;50.40;;;;;;6285011;28;20029;-67
2023/04/13 07:15:17;;;;;;;0.55;0.25;;;13.20;50.10;;;;;;6293762;28;20082;-67
2023/04/13 07:18:18;;;;;;;4.40;0.60;;;13.40;49.80;;;;;;6293275;28;20032;-67
2023/04/13 07:21:20;;;;;;;3.03;0.68;;;13.50;49.40;;;;;;6293570;28;20029;-68
2023/04/13 07:24:33;;;;;;;2.08;0.38;;;13.60;48.80;;;;;;6293835;28;20399;-68
2023/04/13 07:27:36;;;;;;;1.38;0.50;;;13.60;49.20;;;;;;6293060;28;20017;-67
2023/04/13 07:30:42;;;;;;;19.02;1.55;;;13.50;48.60;;;;;;6293401;28;20039;-68
2023/04/13 07:33:43;;;;;;;23.48;2.60;;;13.40;48.60;;;;;;6300141;28;20035;-68
2023/04/13 07:36:45;;;;;;;11.48;1.00;;;13.50;48.70;;;;;;6318026;28;20031;-67
2023/04/13 07:39:50;;;;;;;1.73;0.63;;;13.60;48.80;;;;;;6294761;28;20047;-68
2023/04/13 07:42:52;;;;;;;3.40;0.88;;;13.70;48.70;;;;;;6292605;28;20040;-67
2023/04/13 07:45:53;;;;;;;1.95;0.77;;;13.80;48.60;;;;;;6275703;28;20525;-68
2023/04/13 07:48:54;;;;;;;12.95;0.98;;;14.00;48.50;;;;;;6292237;28;20025;-68
2023/04/13 07:52:00;;;;;;;2.67;0.73;;;14.20;48.40;;;;;;6292800;28;20037;-65
2023/04/13 07:55:07;;;;;;;1.95;0.90;;;14.30;48.10;;;;;;6291985;28;20112;-68
2023/04/13 07:58:12;;;;;;;7.22;1.05;;;14.40;47.70;;;;;;6292129;28;20078;-68
2023/04/13 08:01:13;;;;;;;4.18;0.55;;;14.60;47.50;;;;;;6293568;28;20017;-67
2023/04/13 08:04:14;;;;;;;1.50;0.43;;;14.80;47.40;;;;;;6292055;28;20032;-67
2023/04/13 08:07:17;;;;;;;3.67;0.60;;;15.10;46.90;;;;;;6292093;28;20570;-68
2023/04/13 08:10:19;;;;;;;3.13;0.73;;;15.20;46.40;;;;;;6292187;28;20523;-68
2023/04/13 08:13:20;;;;;;;1.63;0.85;;;15.30;45.40;;;;;;6291640;28;20035;-67
2023/04/13 08:16:21;;;;;;;2.25;0.65;;;15.40;45.00;;;;;;6291388;28;20064;-68
2023/04/13 08:19:23;;;;;;;4.38;0.60;;;15.40;44.70;;;;;;6290698;28;20027;-67
2023/04/13 08:22:28;;;;;;;6.70;0.88;;;15.60;44.50;;;;;;6275706;28;20025;-67
2023/04/13 08:25:29;;;;;;;7.93;1.02;;;15.80;43.90;;;;;;6291724;28;20064;-68
2023/04/13 08:28:31;;;;;;;3.38;0.95;;;16.00;42.50;;;;;;6273824;28;20029;-68
2023/04/13 08:31:32;;;;;;;2.40;0.75;;;16.00;41.60;;;;;;6291603;28;20123;-67
2023/04/13 08:34:37;;;;;;;4.38;0.90;;;16.00;41.70;;;;;;6291244;28;20024;-68
2023/04/13 08:37:38;;;;;;;3.97;0.95;;;16.10;41.70;;;;;;6291262;28;20051;-68
2023/04/13 08:40:41;;;;;;;1.13;0.60;;;16.20;41.50;;;;;;6275123;28;20457;-68
2023/04/13 08:43:49;;;;;;;5.25;0.70;;;16.20;41.00;;;;;;6291040;28;20055;-67
2023/04/13 08:46:51;;;;;;;8.00;0.98;;;16.10;41.20;;;;;;6267649;28;20193;-67
2023/04/13 08:49:58;;;;;;;7.53;0.90;;;16.00;40.60;;;;;;6265397;28;20042;-67
2023/04/13 08:53:11;;;;;;;2.75;1.08;;;15.90;40.90;;;;;;6265613;28;20045;-68
2023/04/13 08:56:13;;;;;;;5.10;0.93;;;15.80;41.20;;;;;;6265863;28;20115;-67
2023/04/13 08:59:16;;;;;;;17.80;1.27;;;15.80;41.20;;;;;;6265580;28;20029;-68
2023/04/13 09:02:24;;;;;;;6.88;0.75;;;15.80;41.50;;;;;;6266208;28;20025;-67
2023/04/13 09:05:30;;;;;;;12.20;2.20;;;15.80;41.70;;;;;;6265578;28;20412;-68
2023/04/13 09:08:35;;;;;;;8.60;1.38;;;15.70;41.60;;;;;;6265713;28;20480;-67
2023/04/13 09:11:40;;;;;;;6.65;1.02;;;16.20;41.40;;;;;;6276647;28;20025;-67
2023/04/13 09:14:42;;;;;;;1.88;0.73;;;16.30;40.50;;;;;;6290091;28;20024;-68
2023/04/13 09:17:43;;;;;;;4.32;0.80;;;16.30;40.30;;;;;;6291264;28;20160;-67
2023/04/13 09:20:58;;;;;;;6.43;0.82;;;16.20;39.50;;;;;;6290093;28;20538;-68
2023/04/13 09:23:59;;;;;;;5.47;1.05;;;16.00;39.80;;;;;;6291341;28;20040;-67
2023/04/13 09:27:01;;;;;;;5.25;1.63;;;15.90;40.20;;;;;;6290960;28;20429;-67
2023/04/13 09:30:04;;;;;;;6.07;0.85;;;15.80;40.80;;;;;;6291146;28;20031;-68
2023/04/13 09:33:06;;;;;;;4.38;0.70;;;15.70;40.80;;;;;;6289557;28;20028;-68
2023/04/13 09:36:16;;;;;;;3.53;1.02;;;15.50;41.00;;;;;;6289692;28;20197;-68
2023/04/13 09:39:26;;;;;;;6.93;0.70;;;15.40;41.20;;;;;;6290813;28;20633;-69
2023/04/13 09:42:27;;;;;;;5.05;0.70;;;15.30;41.40;;;;;;6273450;28;20045;-67
2023/04/13 09:45:39;;;;;;;3.72;0.70;;;15.30;41.90;;;;;;6264614;28;20065;-67
2023/04/13 09:48:41;;;;;;;5.38;1.35;;;15.40;41.20;;;;;;6264990;28;20037;-67
2023/04/13 09:51:51;;;;;;;3.67;0.82;;;15.50;41.40;;;;;;6265485;28;20427;-67
2023/04/13 09:54:59;;;;;;;2.67;0.93;;;15.60;41.40;;;;;;6266372;28;20543;-68
2023/04/13 09:58:15;;;;;;;2.75;0.77;;;15.60;42.00;;;;;;6266835;28;20024;-68
2023/04/13 10:01:16;;;;;;;3.42;0.88;;;15.40;42.40;;;;;;6266750;28;20406;-69
2023/04/13 10:04:17;;;;;;;5.97;1.08;;;15.10;43.10;;;;;;6266146;28;20125;-69
2023/04/13 10:07:19;;;;;;;9.55;1.30;;;14.80;44.10;;;;;;6265972;28;20029;-69
2023/04/13 10:10:21;;;;;;;4.70;0.93;;;14.40;45.00;;;;;;6266631;28;20029;-70
2023/04/13 10:13:26;;;;;;;10.32;1.15;;;14.00;45.90;;;;;;6266131;28;20096;-69
2023/04/13 10:16:57;;;;;;;8.43;0.93;;;13.70;46.60;;;;;;6265767;28;20057;-68
2023/04/13 10:20:06;;;;;;;3.05;0.75;;;13.40;47.10;;;;;;6265555;28;20021;-69
2023/04/13 10:23:10;;;;;;;4.55;0.80;;;13.30;47.80;;;;;;6280577;28;20043;-67
2023/04/13 10:26:11;;;;;;;3.97;0.80;;;13.20;47.80;;;;;;6291535;28;20024;-67
2023/04/13 10:29:13;;;;;;;3.00;0.38;;;13.20;47.70;;;;;;6269040;28;20083;-68
2023/04/13 10:32:25;;;;;;;4.05;0.63;;;13.30;47.60;;;;;;6265236;28;20398;-67
2023/04/13 10:35:26;;;;;;;1.58;0.40;;;13.40;47.90;;;;;;6267872;28;20036;-67
2023/04/13 10:38:28;;;;;;;5.43;1.17;;;13.40;48.00;;;;;;6277072;28;20102;-67
2023/04/13 10:41:29;;;;;;;1.88;0.50;;;13.60;47.90;;;;;;6289349;28;20021;-68
2023/04/13 10:44:46;;;;;;;1.40;0.68;;;13.80;47.80;;;;;;6294787;28;20086;-67
2023/04/13 10:47:47;;;;;;;2.75;0.50;;;14.00;47.60;;;;;;6293587;28;20109;-68
2023/04/13 10:51:00;;;;;;;2.03;0.98;;;14.20;47.20;;;;;;6295217;28;20040;-67
2023/04/13 10:54:04;;;;;;;3.97;0.57;;;14.30;46.80;;;;;;6295123;28;20021;-67
2023/04/13 10:57:08;;;;;;;1.35;0.63;;;14.40;46.50;;;;;;6293526;28;20032;-68
2023/04/13 11:00:20;;;;;;;7.50;0.98;;;14.60;46.30;;;;;;6295045;28;20028;-67
2023/04/13 11:03:21;;;;;;;4.28;0.75;;;14.90;46.10;;;;;;6294891;28;20020;-67
2023/04/13 11:06:22;;;;;;;5.57;1.02;;;15.30;45.70;;;;;;6294673;28;20033;-67
2023/04/13 11:09:23;;;;;;;9.15;1.02;;;15.80;44.70;;;;;;6294695;28;20107;-69
2023/04/13 11:12:24;;;;;;;1.70;0.75;;;16.20;44.00;;;;;;6293137;28;20395;-68
2023/04/13 11:15:27;;;;;;;4.22;0.88;;;16.40;43.20;;;;;;6294526;28;20085;-66
2023/04/13 11:18:28;;;;;;;7.40;1.45;;;16.60;42.80;;;;;;6294063;28;20047;-69
2023/04/13 11:21:34;;;;;;;2.17;0.60;;;16.80;42.40;;;;;;6292937;28;20056;-68
2023/04/13 11:24:34;;;;;;;5.05;1.00;;;16.90;42.10;;;;;;6293005;28;20426;-69
2023/04/13 11:27:36;;;;;;;7.45;1.02;;;17.20;42.00;;;;;;6294317;28;20020;-67
2023/04/13 11:30:37;;;;;;;4.13;0.55;;;17.40;41.70;;;;;;6292568;28;20066;-68
2023/04/13 11:33:39;;;;;;;5.38;1.13;;;17.50;41.60;;;;;;6287704;28;20050;-68
2023/04/13 11:36:41;;;;;;;5.72;0.60;;;17.60;41.30;;;;;;6269880;28;20469;-67
2023/04/13 11:39:42;;;;;;;2.38;0.40;;;17.90;41.20;;;;;;6289557;28;20020;-68
2023/04/13 11:42:49;;;;;;;3.85;0.55;;;18.10;39.60;;;;;;6292377;28;20036;-68
2023/04/13 11:45:50;;;;;;;3.83;1.13;;;18.20;39.30;;;;;;6293837;28;20060;-68
2023/04/13 11:48:53;;;;;;;3.88;0.60;;;18.40;39.40;;;;;;6293112;28;20039;-69
2023/04/13 11:51:55;;;;;;;2.28;0.40;;;18.70;38.60;;;;;;6293609;28;20032;-68
2023/04/13 11:54:57;;;;;;;2.45;1.00;;;18.60;37.80;;;;;;6292821;28;20032;-67
2023/04/13 11:57:57;;;;;;;2.63;0.60;;;18.30;38.10;;;;;;6293522;28;20059;-67
2023/04/13 12:01:05;;;;;;;3.70;0.43;;;17.80;39.00;;;;;;6293332;28;20024;-68
2023/04/13 12:04:06;;;;;;;1.40;0.52;;;17.40;39.50;;;;;;6293112;28;20108;-69
2023/04/13 12:07:13;;;;;;;2.80;0.88;;;17.20;40.10;;;;;;6293442;28;20142;-68
2023/04/13 12:10:35;;;;;;;3.20;0.73;;;17.00;40.70;;;;;;6293270;28;20111;-68
2023/04/13 12:13:55;;;;;;;3.83;0.73;;;17.00;41.10;;;;;;6268265;28;20393;-69
2023/04/13 12:16:56;;;;;;;1.08;0.45;;;17.10;40.60;;;;;;6291888;28;20029;-68
2023/04/13 12:19:58;;;;;;;1.95;0.60;;;17.40;40.40;;;;;;6292840;28;20024;-67
2023/04/13 12:22:59;;;;;;;1.27;0.60;;;18.10;39.70;;;;;;6292917;28;20017;-68
2023/04/13 12:26:07;;;;;;;2.15;0.45;;;18.80;38.20;;;;;;6292587;28;20119;-69
2023/04/13 12:29:07;;;;;;;5.95;0.80;;;19.70;37.20;;;;;;6291912;28;20149;-68
2023/04/13 12:32:12;;;;;;;0.95;0.47;;;20.70;35.80;;;;;;6268131;28;20024;-69
2023/04/13 12:35:14;;;;;;;2.88;0.43;;;21.60;34.40;;;;;;6268040;28;20124;-69
2023/04/13 12:38:15;;;;;;;1.55;0.47;;;22.60;32.70;;;;;;6276169;28;20025;-67
2023/04/13 12:41:16;;;;;;;0.50;0.30;;;23.00;31.60;;;;;;6292630;28;20044;-69
2023/04/13 12:44:17;;;;;;;1.75;0.50;;;23.40;30.40;;;;;;6292015;28;20461;-68
2023/04/13 12:47:18;;;;;;;2.13;0.43;;;23.80;29.80;;;;;;6290503;28;20035;-67
2023/04/13 12:50:19;;;;;;;2.60;0.50;;;23.90;29.40;;;;;;6292555;28;20105;-67
2023/04/13 12:53:20;;;;;;;4.00;1.65;;;24.50;28.60;;;;;;6292839;28;20029;-68
2023/04/13 12:56:21;;;;;;;3.60;1.55;;;24.20;27.70;;;;;;6292361;28;20028;-68
2023/04/13 12:59:22;;;;;;;3.15;0.80;;;24.50;27.80;;;;;;6292073;28;20028;-69
2023/04/13 13:02:24;;;;;;;4.07;0.55;;;25.30;27.10;;;;;;6291907;28;20106;-68
2023/04/13 13:05:25;;;;;;;0.57;0.35;;;25.10;26.10;;;;;;6291885;28;20442;-68
2023/04/13 13:08:26;;;;;;;1.23;0.50;;;24.50;26.90;;;;;;6292153;28;20039;-68
2023/04/13 13:11:27;;;;;;;2.63;0.50;;;23.60;27.70;;;;;;6291561;28;20104;-67
2023/04/13 13:14:28;;;;;;;4.50;1.05;;;22.70;28.50;;;;;;6291417;28;20024;-68
2023/04/13 13:17:29;;;;;;;3.83;0.60;;;21.80;29.20;;;;;;6291449;28;20093;-66
2023/04/13 13:20:30;;;;;;;3.45;0.80;;;20.90;29.80;;;;;;6291419;28;20036;-67
2023/04/13 13:23:30;;;;;;;1.98;0.70;;;20.10;30.40;;;;;;6291595;28;20029;-68
2023/04/13 13:26:32;;;;;;;10.00;0.70;;;19.30;31.70;;;;;;6291585;28;20345;-67
2023/04/13 13:29:35;;;;;;;0.63;0.40;;;18.50;33.70;;;;;;6291091;28;20079;-68
2023/04/13 13:32:36;;;;;;;1.40;0.32;;;17.80;35.70;;;;;;6291355;28;20100;-67
2023/04/13 13:35:37;;;;;;;3.75;0.43;;;17.00;36.90;;;;;;6290759;28;20543;-67
2023/04/13 13:38:38;;;;;;;3.10;0.30;;;16.50;37.40;;;;;;6290545;28;20029;-67
2023/04/13 13:41:39;;;;;;;4.82;0.45;;;16.00;37.60;;;;;;6289260;28;20112;-67
2023/04/13 13:44:40;;;;;;;5.40;0.43;;;15.70;38.10;;;;;;6290465;28;20024;-68
2023/04/13 13:47:41;;;;;;;5.57;0.60;;;15.60;38.70;;;;;;6290787;28;20024;-66
2023/04/13 13:50:43;;;;;;;6.30;0.73;;;15.60;39.10;;;;;;6289320;28;20506;-67
2023/04/13 13:53:44;;;;;;;0.95;0.70;;;15.70;39.30;;;;;;6289361;28;20028;-67
2023/04/13 13:56:45;;;;;;;1.45;0.30;;;16.00;39.30;;;;;;6290705;28;20025;-71
2023/04/13 13:59:46;;;;;;;1.48;0.40;;;16.50;38.70;;;;;;6289231;28;20065;-68
2023/04/13 14:02:47;;;;;;;3.08;1.05;;;17.40;37.30;;;;;;6290457;28;20061;-68
2023/04/13 14:05:48;;;;;;;4.90;0.63;;;18.40;35.70;;;;;;6289428;28;20480;-69
2023/04/13 14:08:48;;;;;;;2.17;0.63;;;19.30;34.70;;;;;;6290828;28;20101;-69
2023/04/13 14:11:49;;;;;;;0.70;0.43;;;19.70;33.00;;;;;;6291249;28;20036;-66
2023/04/13 14:14:50;;;;;;;7.63;0.80;;;19.70;32.70;;;;;;6289896;28;20032;-68
2023/04/13 14:17:51;;;;;;;3.72;0.80;;;19.60;32.90;;;;;;6287589;28;20024;-66
2023/04/13 14:20:52;;;;;;;1.90;0.73;;;19.50;33.00;;;;;;6288710;28;20166;-69
2023/04/13 14:23:53;;;;;;;2.60;0.75;;;19.10;33.60;;;;;;6271067;28;20044;-67
2023/04/13 14:26:54;;;;;;;1.90;0.70;;;18.80;34.10;;;;;;6265240;28;20021;-69
2023/04/13 14:29:55;;;;;;;1.70;0.65;;;18.60;34.40;;;;;;6263858;28;20033;-67
2023/04/13 14:32:56;;;;;;;4.85;0.52;;;18.40;34.40;;;;;;6263814;28;20140;-67
2023/04/13 14:35:56;;;;;;;1.75;0.40;;;18.20;34.60;;;;;;6265985;28;20104;-67
2023/04/13 14:38:59;;;;;;;1.27;0.60;;;18.00;35.00;;;;;;6279688;28;20444;-68
2023/04/13 14:42:00;;;;;;;3.88;0.70;;;17.80;35.20;;;;;;6290107;28;20036;-68
2023/04/13 14:45:01;;;;;;;3.17;0.80;;;17.50;35.70;;;;;;6290713;28;20457;-68
2023/04/13 14:48:01;;;;;;;2.92;0.68;;;17.40;36.00;;;;;;6290059;28;20058;-67
2023/04/13 14:51:02;;;;;;;1.85;0.47;;;17.40;36.20;;;;;;6290930;28;20023;-68
2023/04/13 14:54:03;;;;;;;1.83;0.57;;;17.40;36.20;;;;;;6289811;28;20104;-67
2023/04/13 14:57:04;;;;;;;3.95;0.55;;;17.30;36.10;;;;;;6289972;28;20015;-68
2023/04/13 15:00:20;;;;;;;0.70;0.40;;;17.20;36.20;;;;;;6289862;28;20349;-69
2023/04/13 15:03:21;;;;;;;3.95;0.68;;;17.10;36.30;;;;;;6289978;28;20143;-69
2023/04/13 15:06:22;;;;;;;1.88;0.70;;;16.90;36.50;;;;;;6290356;28;20028;-67
2023/04/13 15:09:23;;;;;;;0.47;0.40;;;16.90;36.60;;;;;;6288411;28;20094;-68
2023/04/13 15:12:23;;;;;;;0.57;0.40;;;16.90;36.30;;;;;;6288605;28;20213;-68
2023/04/13 15:15:24;;;;;;;2.63;0.63;;;17.00;36.10;;;;;;6289150;28;20021;-68
2023/04/13 15:18:25;;;;;;;2.55;0.30;;;17.20;35.70;;;;;;6289786;28;20027;-69
2023/04/13 15:21:26;;;;;;;1.50;0.65;;;17.30;35.10;;;;;;6289897;28;20024;-69
2023/04/13 15:24:27;;;;;;;2.72;0.68;;;17.30;34.90;;;;;;6289848;28;20056;-68
2023/04/13 15:27:28;;;;;;;1.15;0.47;;;17.10;34.70;;;;;;6289598;28;20028;-70
2023/04/13 15:30:30;;;;;;;0.88;0.40;;;17.00;34.70;;;;;;6294228;28;20040;-67
2023/04/13 15:33:31;;;;;;;1.17;0.47;;;16.80;34.60;;;;;;6294511;28;20060;-66
2023/04/13 15:36:32;;;;;;;3.85;0.80;;;16.80;34.70;;;;;;6294965;28;20094;-68
2023/04/13 15:39:39;;;;;;;2.55;0.70;;;16.60;35.10;;;;;;6294654;28;20036;-66
2023/04/13 15:42:42;;;;;;;1.85;0.77;;;16.60;35.70;;;;;;6295125;28;20024;-68
2023/04/13 15:45:45;;;;;;;1.02;0.55;;;16.50;36.20;;;;;;6294159;28;20350;-68
2023/04/13 15:48:48;;;;;;;1.13;0.35;;;16.50;36.50;;;;;;6293939;28;20096;-69
2023/04/13 15:51:49;;;;;;;5.50;1.17;;;16.40;36.90;;;;;;6293348;28;20345;-67
2023/04/13 15:54:50;;;;;;;1.00;0.50;;;16.30;37.50;;;;;;6295068;28;20033;-68
2023/04/13 15:57:52;;;;;;;5.72;1.05;;;16.30;37.80;;;;;;6293522;28;20117;-67